sensor_id;sensor_type;location;lat;lon;timestamp;pressure;altitude;pressure_sealevel;temperature;humidity
50652;BME280;66928;52.086;5.240;2023-02-01T06:24:36;101731.0;;;6.8;74.45
50652;BME280;66928;52.086;5.240;2023-02-01T06:27:48;101741.0;;;6.85;74.19
50652;BME280;66928;52.086;5.240;2023-02-01T06:29:26;101737.0;;;6.78;74.41
50652;BME280;66928;52.086;5.240;2023-02-01T06:31:03;101731.0;;;6.8;74.27
50652;BME280;66928;52.086;5.240;2023-02-01T06:34:18;101736.0;;;6.78;74.66
50652;BME280;66928;52.086;5.240;2023-02-01T06:35:57;101733.0;;;6.69;74.87
50652;BME280;66928;52.086;5.240;2023-02-01T06:37:36;101734.0;;;6.65;75.11
50652;BME280;66928;52.086;5.240;2023-02-01T06:39:16;101749.0;;;6.62;75.24
50652;BME280;66928;52.086;5.240;2023-02-01T06:42:30;101738.0;;;6.73;74.98
50652;BME280;66928;52.086;5.240;2023-02-01T06:44:06;101741.0;;;6.65;75.08
50652;BME280;66928;52.086;5.240;2023-02-01T06:45:42;101733.0;;;6.73;75.05
50652;BME280;66928;52.086;5.240;2023-02-01T06:48:54;101740.0;;;6.81;74.59
50652;BME280;66928;52.086;5.240;2023-02-01T06:50:30;101738.0;;;6.66;74.81
50652;BME280;66928;52.086;5.240;2023-02-01T06:52:06;101736.0;;;6.66;75.06
50652;BME280;66928;52.086;5.240;2023-02-01T06:55:19;101743.0;;;6.69;74.95
50652;BME280;66928;52.086;5.240;2023-02-01T06:56:55;101723.0;;;6.79;74.87
50652;BME280;66928;52.086;5.240;2023-02-01T06:58:32;101730.0;;;6.76;75.03
50652;BME280;66928;52.086;5.240;2023-02-01T07:00:10;101737.0;;;6.76;75.08
50652;BME280;66928;52.086;5.240;2023-02-01T07:03:22;101736.0;;;6.88;74.8
50652;BME280;66928;52.086;5.240;2023-02-01T07:04:58;101737.0;;;6.74;75.36
50652;BME280;66928;52.086;5.240;2023-02-01T07:06:35;101726.0;;;6.82;75.11
50652;BME280;66928;52.086;5.240;2023-02-01T07:09:47;101738.0;;;6.87;74.84
50652;BME280;66928;52.086;5.240;2023-02-01T07:11:23;101730.0;;;6.81;74.99
50652;BME280;66928;52.086;5.240;2023-02-01T07:13:00;101736.0;;;6.96;74.53
50652;BME280;66928;52.086;5.240;2023-02-01T07:16:14;101740.0;;;6.92;74.3
50652;BME280;66928;52.086;5.240;2023-02-01T07:17:53;101734.0;;;6.88;74.47
50652;BME280;66928;52.086;5.240;2023-02-01T07:19:30;101730.0;;;6.94;74.33
50652;BME280;66928;52.086;5.240;2023-02-01T07:21:07;101745.0;;;6.85;74.3
50652;BME280;66928;52.086;5.240;2023-02-01T07:24:21;101739.0;;;6.95;74.06
50652;BME280;66928;52.086;5.240;2023-02-01T07:26:00;101730.0;;;6.86;74.27
50652;BME280;66928;52.086;5.240;2023-02-01T07:27:37;101733.0;;;6.98;73.84
50652;BME280;66928;52.086;5.240;2023-02-01T07:30:51;101745.0;;;6.93;73.83
50652;BME280;66928;52.086;5.240;2023-02-01T07:32:27;101752.0;;;6.99;73.99
50652;BME280;66928;52.086;5.240;2023-02-01T07:34:04;101736.0;;;6.88;74.22
50652;BME280;66928;52.086;5.240;2023-02-01T07:35:41;101733.0;;;7.07;73.62
50652;BME280;66928;52.086;5.240;2023-02-01T07:38:54;101738.0;;;7.01;73.73
50652;BME280;66928;52.086;5.240;2023-02-01T07:40:30;101735.0;;;7.03;73.91
50652;BME280;66928;52.086;5.240;2023-02-01T07:42:07;101734.0;;;7.01;73.74
50652;BME280;66928;52.086;5.240;2023-02-01T07:45:20;101740.0;;;6.91;74.22
50652;BME280;66928;52.086;5.240;2023-02-01T07:46:56;101733.0;;;7.04;73.8
50652;BME280;66928;52.086;5.240;2023-02-01T07:48:33;101745.0;;;7.03;73.69
50652;BME280;66928;52.086;5.240;2023-02-01T07:51:46;101756.0;;;6.94;74.0
50652;BME280;66928;52.086;5.240;2023-02-01T07:53:22;101755.0;;;7.0;73.8
50652;BME280;66928;52.086;5.240;2023-02-01T07:54:58;101745.0;;;6.93;74.05
50652;BME280;66928;52.086;5.240;2023-02-01T07:58:11;101755.0;;;6.95;74.33
50652;BME280;66928;52.086;5.240;2023-02-01T08:01:22;101755.0;;;6.9;74.42
50652;BME280;66928;52.086;5.240;2023-02-01T08:03:21;101750.0;;;6.95;74.37
50652;BME280;66928;52.086;5.240;2023-02-01T08:06:34;101753.0;;;7.05;74.3
50652;BME280;66928;52.086;5.240;2023-02-01T08:08:10;101763.0;;;6.92;74.33
50652;BME280;66928;52.086;5.240;2023-02-01T08:09:46;101768.0;;;6.9;74.63
50652;BME280;66928;52.086;5.240;2023-02-01T08:11:23;101763.0;;;6.9;74.66
50652;BME280;66928;52.086;5.240;2023-02-01T08:16:19;101762.0;;;7.01;74.19
50652;BME280;66928;52.086;5.240;2023-02-01T08:17:56;101756.0;;;7.0;74.17
50652;BME280;66928;52.086;5.240;2023-02-01T08:21:10;101756.0;;;6.94;74.17
50652;BME280;66928;52.086;5.240;2023-02-01T08:22:49;101756.0;;;6.93;74.45
50652;BME280;66928;52.086;5.240;2023-02-01T08:24:25;101742.0;;;6.97;74.44
50652;BME280;66928;52.086;5.240;2023-02-01T08:26:07;101753.0;;;6.94;74.44
50652;BME280;66928;52.086;5.240;2023-02-01T08:29:24;101746.0;;;6.9;74.47
50652;BME280;66928;52.086;5.240;2023-02-01T08:31:04;101741.0;;;7.09;74.02
50652;BME280;66928;52.086;5.240;2023-02-01T08:32:41;101730.0;;;7.11;73.99
50652;BME280;66928;52.086;5.240;2023-02-01T08:34:17;101739.0;;;7.05;74.27
50652;BME280;66928;52.086;5.240;2023-02-01T08:37:28;101742.0;;;7.08;74.02
50652;BME280;66928;52.086;5.240;2023-02-01T08:39:09;101734.0;;;7.26;73.47
50652;BME280;66928;52.086;5.240;2023-02-01T08:40:46;101734.0;;;7.27;73.41
50652;BME280;66928;52.086;5.240;2023-02-01T08:44:31;101742.0;;;7.34;73.25
50652;BME280;66928;52.086;5.240;2023-02-01T08:46:07;101737.0;;;7.21;73.66
50652;BME280;66928;52.086;5.240;2023-02-01T08:47:47;101735.0;;;7.28;73.52
50652;BME280;66928;52.086;5.240;2023-02-01T08:49:23;101736.0;;;7.19;73.97
50652;BME280;66928;52.086;5.240;2023-02-01T08:52:38;101753.0;;;7.22;73.81
50652;BME280;66928;52.086;5.240;2023-02-01T08:54:14;101744.0;;;7.35;73.8
50652;BME280;66928;52.086;5.240;2023-02-01T08:55:50;101736.0;;;7.48;73.33
50652;BME280;66928;52.086;5.240;2023-02-01T08:57:27;101742.0;;;7.38;73.41
50652;BME280;66928;52.086;5.240;2023-02-01T09:00:40;101737.0;;;7.37;73.45
50652;BME280;66928;52.086;5.240;2023-02-01T09:03:55;101730.0;;;7.47;73.17
50652;BME280;66928;52.086;5.240;2023-02-01T09:07:07;101735.0;;;7.39;73.44
50652;BME280;66928;52.086;5.240;2023-02-01T09:08:44;101731.0;;;7.47;73.3
50652;BME280;66928;52.086;5.240;2023-02-01T09:10:20;101727.0;;;7.61;72.75
50652;BME280;66928;52.086;5.240;2023-02-01T09:11:56;101724.0;;;7.66;72.48
50652;BME280;66928;52.086;5.240;2023-02-01T09:15:10;101724.0;;;7.65;72.49
50652;BME280;66928;52.086;5.240;2023-02-01T09:16:47;101732.0;;;7.78;71.8
50652;BME280;66928;52.086;5.240;2023-02-01T09:18:23;101724.0;;;7.72;72.16
50652;BME280;66928;52.086;5.240;2023-02-01T09:21:37;101710.0;;;7.69;72.33
50652;BME280;66928;52.086;5.240;2023-02-01T09:23:13;101713.0;;;7.8;71.73
50652;BME280;66928;52.086;5.240;2023-02-01T09:24:51;101703.0;;;7.97;71.36
50652;BME280;66928;52.086;5.240;2023-02-01T09:28:06;101713.0;;;7.91;71.53
50652;BME280;66928;52.086;5.240;2023-02-01T09:29:42;101703.0;;;7.9;71.48
50652;BME280;66928;52.086;5.240;2023-02-01T09:31:18;101716.0;;;7.95;71.49
50652;BME280;66928;52.086;5.240;2023-02-01T09:32:55;101708.0;;;8.09;71.06
50652;BME280;66928;52.086;5.240;2023-02-01T09:36:09;101706.0;;;8.01;70.73
50652;BME280;66928;52.086;5.240;2023-02-01T09:37:45;101717.0;;;8.07;70.58
50652;BME280;66928;52.086;5.240;2023-02-01T09:39:22;101721.0;;;8.02;71.05
50652;BME280;66928;52.086;5.240;2023-02-01T09:42:50;101728.0;;;8.01;71.16
50652;BME280;66928;52.086;5.240;2023-02-01T09:44:56;101693.0;;;8.02;71.08
50652;BME280;66928;52.086;5.240;2023-02-01T09:47:21;101719.0;;;7.98;71.49
50652;BME280;66928;52.086;5.240;2023-02-01T09:49:02;101706.0;;;8.09;70.99
50652;BME280;66928;52.086;5.240;2023-02-01T09:50:54;101724.0;;;8.2;70.84
50652;BME280;66928;52.086;5.240;2023-02-01T09:52:36;101728.0;;;8.23;70.8
50652;BME280;66928;52.086;5.240;2023-02-01T09:54:33;101724.0;;;8.27;70.66
50652;BME280;66928;52.086;5.240;2023-02-01T09:56:21;101722.0;;;8.28;70.8
50652;BME280;66928;52.086;5.240;2023-02-01T09:58:04;101711.0;;;8.08;71.38
50652;BME280;66928;52.086;5.240;2023-02-01T10:01:24;101743.0;;;7.98;71.77
50652;BME280;66928;52.086;5.240;2023-02-01T10:03:02;101730.0;;;8.16;71.56
50652;BME280;66928;52.086;5.240;2023-02-01T10:04:39;101727.0;;;7.96;71.67
50652;BME280;66928;52.086;5.240;2023-02-01T10:08:51;101712.0;;;8.15;70.86
50652;BME280;66928;52.086;5.240;2023-02-01T10:10:38;101715.0;;;8.31;69.72
50652;BME280;66928;52.086;5.240;2023-02-01T10:16:06;101705.0;;;8.02;71.41
50652;BME280;66928;52.086;5.240;2023-02-01T10:17:58;101721.0;;;7.94;72.16
50652;BME280;66928;52.086;5.240;2023-02-01T10:19:49;101710.0;;;8.02;72.16
50652;BME280;66928;52.086;5.240;2023-02-01T10:21:40;101718.0;;;7.86;73.22
50652;BME280;66928;52.086;5.240;2023-02-01T10:23:45;101734.0;;;7.94;73.66
50652;BME280;66928;52.086;5.240;2023-02-01T10:26:18;101721.0;;;7.71;74.66
50652;BME280;66928;52.086;5.240;2023-02-01T10:27:57;101736.0;;;7.73;74.86
50652;BME280;66928;52.086;5.240;2023-02-01T10:29:38;101712.0;;;7.71;75.02
50652;BME280;66928;52.086;5.240;2023-02-01T10:33:07;101722.0;;;7.64;74.94
50652;BME280;66928;52.086;5.240;2023-02-01T10:34:57;101730.0;;;7.76;74.44
50652;BME280;66928;52.086;5.240;2023-02-01T10:36:40;101738.0;;;7.64;74.16
50652;BME280;66928;52.086;5.240;2023-02-01T10:38:24;101730.0;;;7.6;74.69
50652;BME280;66928;52.086;5.240;2023-02-01T10:40:15;101720.0;;;7.78;74.0
50652;BME280;66928;52.086;5.240;2023-02-01T10:41:57;101708.0;;;7.75;73.69
50652;BME280;66928;52.086;5.240;2023-02-01T10:45:13;101717.0;;;7.75;73.67
50652;BME280;66928;52.086;5.240;2023-02-01T10:46:52;101722.0;;;7.66;73.78
50652;BME280;66928;52.086;5.240;2023-02-01T10:48:29;101720.0;;;7.63;74.19
50652;BME280;66928;52.086;5.240;2023-02-01T10:51:59;101718.0;;;7.62;73.83
50652;BME280;66928;52.086;5.240;2023-02-01T10:53:42;101693.0;;;7.89;73.09
50652;BME280;66928;52.086;5.240;2023-02-01T10:55:33;101709.0;;;7.99;72.56
50652;BME280;66928;52.086;5.240;2023-02-01T10:57:21;101711.0;;;7.99;72.61
50652;BME280;66928;52.086;5.240;2023-02-01T10:59:00;101712.0;;;7.99;72.62
50652;BME280;66928;52.086;5.240;2023-02-01T11:02:26;101700.0;;;7.94;72.48
50652;BME280;66928;52.086;5.240;2023-02-01T11:04:05;101698.0;;;7.83;72.44
50652;BME280;66928;52.086;5.240;2023-02-01T11:05:46;101708.0;;;7.81;72.58
50652;BME280;66928;52.086;5.240;2023-02-01T11:07:24;101719.0;;;7.96;72.47
50652;BME280;66928;52.086;5.240;2023-02-01T11:10:58;101707.0;;;8.2;71.97
50652;BME280;66928;52.086;5.240;2023-02-01T11:12:37;101694.0;;;7.94;71.99
50652;BME280;66928;52.086;5.240;2023-02-01T11:14:16;101691.0;;;7.96;73.63
50652;BME280;66928;52.086;5.240;2023-02-01T11:15:55;101705.0;;;7.89;74.88
50652;BME280;66928;52.086;5.240;2023-02-01T11:17:34;101694.0;;;7.91;74.47
50652;BME280;66928;52.086;5.240;2023-02-01T11:20:53;101685.0;;;8.0;74.52
50652;BME280;66928;52.086;5.240;2023-02-01T11:22:30;101680.0;;;8.01;74.5
50652;BME280;66928;52.086;5.240;2023-02-01T11:24:18;101701.0;;;8.13;74.09
50652;BME280;66928;52.086;5.240;2023-02-01T11:26:02;101707.0;;;8.08;74.22
50652;BME280;66928;52.086;5.240;2023-02-01T11:29:33;101696.0;;;7.91;74.16
50652;BME280;66928;52.086;5.240;2023-02-01T11:31:13;101702.0;;;7.89;74.09
50652;BME280;66928;52.086;5.240;2023-02-01T11:32:50;101686.0;;;8.0;73.97
50652;BME280;66928;52.086;5.240;2023-02-01T11:34:31;101702.0;;;7.94;74.08
50652;BME280;66928;52.086;5.240;2023-02-01T11:37:57;101687.0;;;7.91;74.02
50652;BME280;66928;52.086;5.240;2023-02-01T11:39:35;101696.0;;;8.1;73.72
50652;BME280;66928;52.086;5.240;2023-02-01T11:41:13;101682.0;;;8.14;73.27
50652;BME280;66928;52.086;5.240;2023-02-01T11:42:53;101699.0;;;8.16;72.55
50652;BME280;66928;52.086;5.240;2023-02-01T11:46:17;101700.0;;;8.09;72.74
50652;BME280;66928;52.086;5.240;2023-02-01T11:47:55;101699.0;;;8.15;72.97
50652;BME280;66928;52.086;5.240;2023-02-01T11:49:33;101709.0;;;8.17;72.83
50652;BME280;66928;52.086;5.240;2023-02-01T11:51:21;101691.0;;;8.25;71.81
50652;BME280;66928;52.086;5.240;2023-02-01T11:53:20;101705.0;;;8.26;71.55
50652;BME280;66928;52.086;5.240;2023-02-01T11:58:04;101693.0;;;8.31;71.8
50652;BME280;66928;52.086;5.240;2023-02-01T12:00:02;101677.0;;;8.25;71.74
50652;BME280;66928;52.086;5.240;2023-02-01T12:01:58;101684.0;;;8.17;71.8
50652;BME280;66928;52.086;5.240;2023-02-01T12:04:34;101685.0;;;8.24;71.75
50652;BME280;66928;52.086;5.240;2023-02-01T12:06:46;101674.0;;;8.27;71.33
50652;BME280;66928;52.086;5.240;2023-02-01T12:08:36;101670.0;;;8.23;71.52
50652;BME280;66928;52.086;5.240;2023-02-01T12:10:59;101672.0;;;8.47;71.05
50652;BME280;66928;52.086;5.240;2023-02-01T12:12:46;101673.0;;;8.38;70.8
50652;BME280;66928;52.086;5.240;2023-02-01T12:14:44;101674.0;;;8.3;71.2
50652;BME280;66928;52.086;5.240;2023-02-01T12:16:38;101682.0;;;8.44;71.0
50652;BME280;66928;52.086;5.240;2023-02-01T12:18:39;101660.0;;;8.4;70.41
50652;BME280;66928;52.086;5.240;2023-02-01T12:20:58;101642.0;;;8.47;70.16
50652;BME280;66928;52.086;5.240;2023-02-01T12:22:49;101665.0;;;8.39;70.58
50652;BME280;66928;52.086;5.240;2023-02-01T12:24:42;101673.0;;;8.41;70.55
50652;BME280;66928;52.086;5.240;2023-02-01T12:26:50;101665.0;;;8.48;70.49
50652;BME280;66928;52.086;5.240;2023-02-01T12:30:42;101677.0;;;8.4;70.17
50652;BME280;66928;52.086;5.240;2023-02-01T12:32:45;101653.0;;;8.4;70.53
50652;BME280;66928;52.086;5.240;2023-02-01T12:34:44;101658.0;;;8.36;70.42
50652;BME280;66928;52.086;5.240;2023-02-01T12:36:37;101663.0;;;8.39;70.02
50652;BME280;66928;52.086;5.240;2023-02-01T12:38:27;101660.0;;;8.39;70.31
50652;BME280;66928;52.086;5.240;2023-02-01T12:40:20;101664.0;;;8.44;70.2
50652;BME280;66928;52.086;5.240;2023-02-01T12:42:15;101673.0;;;8.48;70.19
50652;BME280;66928;52.086;5.240;2023-02-01T12:43:58;101650.0;;;8.56;69.64
50652;BME280;66928;52.086;5.240;2023-02-01T12:45:40;101650.0;;;8.53;69.86
50652;BME280;66928;52.086;5.240;2023-02-01T12:49:08;101656.0;;;8.53;69.98
50652;BME280;66928;52.086;5.240;2023-02-01T12:50:50;101661.0;;;8.58;69.94
50652;BME280;66928;52.086;5.240;2023-02-01T12:52:37;101658.0;;;8.5;69.8
50652;BME280;66928;52.086;5.240;2023-02-01T12:54:23;101657.0;;;8.52;70.11
50652;BME280;66928;52.086;5.240;2023-02-01T12:56:15;101646.0;;;8.45;70.36
50652;BME280;66928;52.086;5.240;2023-02-01T12:58:06;101641.0;;;8.44;70.2
50652;BME280;66928;52.086;5.240;2023-02-01T13:01:35;101638.0;;;8.48;70.14
50652;BME280;66928;52.086;5.240;2023-02-01T13:03:26;101658.0;;;8.43;70.55
50652;BME280;66928;52.086;5.240;2023-02-01T13:05:16;101651.0;;;8.47;70.66
50652;BME280;66928;52.086;5.240;2023-02-01T13:06:59;101665.0;;;8.55;69.92
50652;BME280;66928;52.086;5.240;2023-02-01T13:08:43;101666.0;;;8.42;70.83
50652;BME280;66928;52.086;5.240;2023-02-01T13:12:12;101669.0;;;8.47;70.69
50652;BME280;66928;52.086;5.240;2023-02-01T13:13:58;101661.0;;;8.44;70.58
50652;BME280;66928;52.086;5.240;2023-02-01T13:15:40;101668.0;;;8.48;70.73
50652;BME280;66928;52.086;5.240;2023-02-01T13:17:22;101657.0;;;8.48;70.83
50652;BME280;66928;52.086;5.240;2023-02-01T13:19:06;101674.0;;;8.41;70.91
50652;BME280;66928;52.086;5.240;2023-02-01T13:20:58;101671.0;;;8.39;70.97
50652;BME280;66928;52.086;5.240;2023-02-01T13:24:31;101670.0;;;8.39;71.2
50652;BME280;66928;52.086;5.240;2023-02-01T13:26:10;101662.0;;;8.39;71.27
50652;BME280;66928;52.086;5.240;2023-02-01T13:27:46;101653.0;;;8.41;71.27
50652;BME280;66928;52.086;5.240;2023-02-01T13:29:25;101668.0;;;8.44;71.3
50652;BME280;66928;52.086;5.240;2023-02-01T13:33:38;101658.0;;;8.5;71.16
50652;BME280;66928;52.086;5.240;2023-02-01T13:35:43;101658.0;;;8.56;71.19
50652;BME280;66928;52.086;5.240;2023-02-01T13:37:41;101684.0;;;8.49;71.09
50652;BME280;66928;52.086;5.240;2023-02-01T13:40:35;101661.0;;;8.56;71.22
50652;BME280;66928;52.086;5.240;2023-02-01T13:42:20;101667.0;;;8.59;70.7
50652;BME280;66928;52.086;5.240;2023-02-01T13:44:01;101664.0;;;8.57;70.88
50652;BME280;66928;52.086;5.240;2023-02-01T13:47:26;101661.0;;;8.57;71.06
50652;BME280;66928;52.086;5.240;2023-02-01T13:49:06;101653.0;;;8.58;71.2
50652;BME280;66928;52.086;5.240;2023-02-01T13:50:43;101676.0;;;8.55;71.12
50652;BME280;66928;52.086;5.240;2023-02-01T13:52:31;101656.0;;;8.53;70.8
50652;BME280;66928;52.086;5.240;2023-02-01T13:56:07;101675.0;;;8.51;71.3
50652;BME280;66928;52.086;5.240;2023-02-01T13:57:49;101663.0;;;8.5;71.36
50652;BME280;66928;52.086;5.240;2023-02-01T14:00:06;101694.0;;;8.58;71.2
50652;BME280;66928;52.086;5.240;2023-02-01T14:01:44;101684.0;;;8.72;70.77
50652;BME280;66928;52.086;5.240;2023-02-01T14:03:21;101686.0;;;8.59;71.27
50652;BME280;66928;52.086;5.240;2023-02-01T14:04:58;101673.0;;;8.53;71.91
50652;BME280;66928;52.086;5.240;2023-02-01T14:08:24;101660.0;;;8.61;71.48
50652;BME280;66928;52.086;5.240;2023-02-01T14:11:40;101671.0;;;8.59;71.83
50652;BME280;66928;52.086;5.240;2023-02-01T14:13:26;101676.0;;;8.57;71.83
50652;BME280;66928;52.086;5.240;2023-02-01T14:19:20;101673.0;;;8.64;71.8
50652;BME280;66928;52.086;5.240;2023-02-01T14:21:15;101690.0;;;8.58;71.84
50652;BME280;66928;52.086;5.240;2023-02-01T14:23:01;101676.0;;;8.66;71.75
50652;BME280;66928;52.086;5.240;2023-02-01T14:24:38;101676.0;;;8.6;71.66
50652;BME280;66928;52.086;5.240;2023-02-01T14:26:17;101676.0;;;8.56;71.98
50652;BME280;66928;52.086;5.240;2023-02-01T14:27:56;101671.0;;;8.48;72.3
50652;BME280;66928;52.086;5.240;2023-02-01T14:31:18;101668.0;;;8.56;72.08
50652;BME280;66928;52.086;5.240;2023-02-01T14:33:34;101673.0;;;8.56;72.13
50652;BME280;66928;52.086;5.240;2023-02-01T14:35:20;101660.0;;;8.68;71.91
50652;BME280;66928;52.086;5.240;2023-02-01T14:37:06;101660.0;;;8.68;71.97
50652;BME280;66928;52.086;5.240;2023-02-01T14:38:48;101670.0;;;8.66;72.0
50652;BME280;66928;52.086;5.240;2023-02-01T14:40:27;101672.0;;;8.67;72.13
50652;BME280;66928;52.086;5.240;2023-02-01T14:44:31;101664.0;;;8.65;72.12
50652;BME280;66928;52.086;5.240;2023-02-01T14:46:09;101662.0;;;8.64;72.23
50652;BME280;66928;52.086;5.240;2023-02-01T14:47:47;101663.0;;;8.65;72.2
50652;BME280;66928;52.086;5.240;2023-02-01T14:49:29;101669.0;;;8.64;72.3
50652;BME280;66928;52.086;5.240;2023-02-01T14:51:07;101657.0;;;8.66;72.2
50652;BME280;66928;52.086;5.240;2023-02-01T14:54:25;101676.0;;;8.65;72.41
50652;BME280;66928;52.086;5.240;2023-02-01T14:56:08;101665.0;;;8.68;72.31
50652;BME280;66928;52.086;5.240;2023-02-01T14:57:48;101665.0;;;8.59;72.73
50652;BME280;66928;52.086;5.240;2023-02-01T14:59:31;101680.0;;;8.72;72.44
50652;BME280;66928;52.086;5.240;2023-02-01T15:03:19;101678.0;;;8.66;72.61
50652;BME280;66928;52.086;5.240;2023-02-01T15:05:23;101673.0;;;8.68;72.63
50652;BME280;66928;52.086;5.240;2023-02-01T15:07:07;101684.0;;;8.64;72.75
50652;BME280;66928;52.086;5.240;2023-02-01T15:08:45;101678.0;;;8.64;72.74
50652;BME280;66928;52.086;5.240;2023-02-01T15:10:22;101684.0;;;8.61;73.0
50652;BME280;66928;52.086;5.240;2023-02-01T15:12:02;101687.0;;;8.61;73.19
50652;BME280;66928;52.086;5.240;2023-02-01T15:15:18;101690.0;;;8.57;73.31
50652;BME280;66928;52.086;5.240;2023-02-01T15:16:55;101696.0;;;8.52;73.66
50652;BME280;66928;52.086;5.240;2023-02-01T15:18:32;101695.0;;;8.71;73.19
50652;BME280;66928;52.086;5.240;2023-02-01T15:20:13;101705.0;;;8.6;73.37
50652;BME280;66928;52.086;5.240;2023-02-01T15:23:33;101692.0;;;8.68;73.06
50652;BME280;66928;52.086;5.240;2023-02-01T15:25:18;101706.0;;;8.68;73.13
50652;BME280;66928;52.086;5.240;2023-02-01T15:27:02;101709.0;;;8.73;73.11
50652;BME280;66928;52.086;5.240;2023-02-01T15:28:40;101697.0;;;8.76;73.02
50652;BME280;66928;52.086;5.240;2023-02-01T15:31:56;101708.0;;;8.69;73.13
50652;BME280;66928;52.086;5.240;2023-02-01T15:33:32;101705.0;;;8.78;73.11
50652;BME280;66928;52.086;5.240;2023-02-01T15:35:32;101686.0;;;8.89;72.55
50652;BME280;66928;52.086;5.240;2023-02-01T15:37:12;101702.0;;;8.85;72.83
50652;BME280;66928;52.086;5.240;2023-02-01T15:40:54;101720.0;;;8.85;72.55
50652;BME280;66928;52.086;5.240;2023-02-01T15:42:33;101718.0;;;8.75;72.94
50652;BME280;66928;52.086;5.240;2023-02-01T15:44:17;101719.0;;;8.78;73.09
50652;BME280;66928;52.086;5.240;2023-02-01T15:45:57;101712.0;;;8.81;72.88
50652;BME280;66928;52.086;5.240;2023-02-01T15:47:36;101711.0;;;8.89;72.64
50652;BME280;66928;52.086;5.240;2023-02-01T15:51:00;101714.0;;;8.86;72.61
50652;BME280;66928;52.086;5.240;2023-02-01T15:52:40;101711.0;;;8.84;72.72
50652;BME280;66928;52.086;5.240;2023-02-01T15:54:24;101721.0;;;8.85;72.66
50652;BME280;66928;52.086;5.240;2023-02-01T15:56:04;101730.0;;;8.8;72.86
50652;BME280;66928;52.086;5.240;2023-02-01T15:59:21;101712.0;;;8.83;72.84
50652;BME280;66928;52.086;5.240;2023-02-01T16:00:59;101715.0;;;8.84;72.78
50652;BME280;66928;52.086;5.240;2023-02-01T16:02:42;101726.0;;;8.82;72.66
50652;BME280;66928;52.086;5.240;2023-02-01T16:04:29;101741.0;;;8.9;72.59
50652;BME280;66928;52.086;5.240;2023-02-01T16:07:55;101727.0;;;8.83;72.75
50652;BME280;66928;52.086;5.240;2023-02-01T16:09:37;101705.0;;;8.81;72.91
50652;BME280;66928;52.086;5.240;2023-02-01T16:11:23;101721.0;;;8.78;72.98
50652;BME280;66928;52.086;5.240;2023-02-01T16:13:01;101721.0;;;8.8;72.98
50652;BME280;66928;52.086;5.240;2023-02-01T16:14:37;101725.0;;;8.89;72.67
50652;BME280;66928;52.086;5.240;2023-02-01T16:17:50;101730.0;;;8.81;72.74
50652;BME280;66928;52.086;5.240;2023-02-01T16:19:28;101728.0;;;8.89;72.52
50652;BME280;66928;52.086;5.240;2023-02-01T16:21:04;101721.0;;;8.81;72.53
50652;BME280;66928;52.086;5.240;2023-02-01T16:24:16;101719.0;;;8.8;72.84
50652;BME280;66928;52.086;5.240;2023-02-01T16:25:52;101724.0;;;8.84;72.69
50652;BME280;66928;52.086;5.240;2023-02-01T16:27:28;101714.0;;;8.81;72.52
50652;BME280;66928;52.086;5.240;2023-02-01T16:30:42;101722.0;;;8.91;72.38
50652;BME280;66928;52.086;5.240;2023-02-01T16:32:20;101730.0;;;8.85;72.74
50652;BME280;66928;52.086;5.240;2023-02-01T16:33:57;101727.0;;;8.82;72.73
50652;BME280;66928;52.086;5.240;2023-02-01T16:35:37;101726.0;;;8.91;72.28
50652;BME280;66928;52.086;5.240;2023-02-01T16:38:59;101721.0;;;8.89;72.47
50652;BME280;66928;52.086;5.240;2023-02-01T16:40:37;101724.0;;;8.94;72.27
50652;BME280;66928;52.086;5.240;2023-02-01T16:42:15;101728.0;;;8.91;72.23
50652;BME280;66928;52.086;5.240;2023-02-01T16:43:53;101724.0;;;8.9;72.36
50652;BME280;66928;52.086;5.240;2023-02-01T16:47:12;101730.0;;;8.97;72.41
50652;BME280;66928;52.086;5.240;2023-02-01T16:48:52;101744.0;;;8.86;72.84
50652;BME280;66928;52.086;5.240;2023-02-01T16:50:33;101739.0;;;8.89;72.8
50652;BME280;66928;52.086;5.240;2023-02-01T16:52:14;101732.0;;;8.96;72.61
50652;BME280;66928;52.086;5.240;2023-02-01T16:55:29;101752.0;;;8.96;72.84
50652;BME280;66928;52.086;5.240;2023-02-01T16:57:10;101777.0;;;8.9;73.0
50652;BME280;66928;52.086;5.240;2023-02-01T16:58:47;101756.0;;;8.91;73.09
50652;BME280;66928;52.086;5.240;2023-02-01T17:02:04;101755.0;;;8.88;73.3
50652;BME280;66928;52.086;5.240;2023-02-01T17:03:40;101763.0;;;8.91;73.28
50652;BME280;66928;52.086;5.240;2023-02-01T17:05:17;101762.0;;;8.92;73.38
50652;BME280;66928;52.086;5.240;2023-02-01T17:06:53;101780.0;;;8.89;73.38
50652;BME280;66928;52.086;5.240;2023-02-01T17:10:18;101775.0;;;8.88;73.67
50652;BME280;66928;52.086;5.240;2023-02-01T17:11:57;101756.0;;;9.06;73.05
50652;BME280;66928;52.086;5.240;2023-02-01T17:13:34;101778.0;;;9.03;73.14
50652;BME280;66928;52.086;5.240;2023-02-01T17:15:11;101783.0;;;8.97;73.47
50652;BME280;66928;52.086;5.240;2023-02-01T17:18:27;101789.0;;;8.94;73.52
50652;BME280;66928;52.086;5.240;2023-02-01T17:20:05;101780.0;;;8.98;73.5
50652;BME280;66928;52.086;5.240;2023-02-01T17:21:43;101780.0;;;9.07;73.24
50652;BME280;66928;52.086;5.240;2023-02-01T17:24:59;101783.0;;;8.98;73.47
50652;BME280;66928;52.086;5.240;2023-02-01T17:26:35;101777.0;;;9.15;73.0
50652;BME280;66928;52.086;5.240;2023-02-01T17:28:11;101797.0;;;9.0;73.44
50652;BME280;66928;52.086;5.240;2023-02-01T17:29:48;101805.0;;;8.98;73.72
50652;BME280;66928;52.086;5.240;2023-02-01T17:33:01;101790.0;;;8.98;73.77
50652;BME280;66928;52.086;5.240;2023-02-01T17:34:37;101788.0;;;8.9;74.19
50652;BME280;66928;52.086;5.240;2023-02-01T17:36:14;101796.0;;;8.89;74.19
50652;BME280;66928;52.086;5.240;2023-02-01T17:40:02;101797.0;;;9.03;73.86
50652;BME280;66928;52.086;5.240;2023-02-01T17:41:38;101796.0;;;8.97;73.94
50652;BME280;66928;52.086;5.240;2023-02-01T17:43:17;101785.0;;;8.97;74.14
50652;BME280;66928;52.086;5.240;2023-02-01T17:44:59;101790.0;;;9.02;73.78
50652;BME280;66928;52.086;5.240;2023-02-01T17:46:37;101810.0;;;8.93;74.08
50652;BME280;66928;52.086;5.240;2023-02-01T17:49:55;101792.0;;;8.97;74.14
50652;BME280;66928;52.086;5.240;2023-02-01T17:51:32;101786.0;;;9.0;74.08
50652;BME280;66928;52.086;5.240;2023-02-01T17:53:13;101792.0;;;8.98;74.14
50652;BME280;66928;52.086;5.240;2023-02-01T17:56:30;101783.0;;;9.06;73.69
50652;BME280;66928;52.086;5.240;2023-02-01T17:58:13;101790.0;;;9.21;73.13